Time;durP1;ratioP1;P1;durP2;ratioP2;P2;SDS_P1;SDS_P2;PMS_P1;PMS_P2;Temp;Humidity;BMP_temperature;BMP_pressure;BME280_temperature;BME280_humidity;BME280_pressure;Samples;Min_cycle;Max_cycle;Signal;HPM_P1;HPM_P2
2021/01/25 14:32:51;;;;;;;46.45;10.85;;;;;;;7.17;100.00;99710.23;1815213;77;26686;-47
2021/01/25 14:35:21;;;;;;;34.83;9.15;;;;;;;7.20;100.00;99715.31;1777619;79;22523;-44
2021/01/25 14:37:52;;;;;;;43.55;10.50;;;;;;;7.31;100.00;99706.85;1763042;79;21575;-45
2021/01/25 14:40:22;;;;;;;65.17;10.43;;;;;;;7.91;100.00;99705.22;1719006;81;21173;-44
2021/01/25 14:42:51;;;;;;;32.33;7.58;;;;;;;7.62;100.00;99712.95;1770576;80;21600;-45
2021/01/25 14:45:25;;;;;;;33.88;8.30;;;;;;;8.09;100.00;99703.44;1762961;80;21169;-44
2021/01/25 14:47:54;;;;;;;27.45;6.65;;;;;;;8.46;98.81;99707.58;1781622;79;21185;-44
2021/01/25 14:50:23;;;;;;;29.12;7.90;;;;;;;8.61;98.38;99699.34;1765871;80;21576;-45
2021/01/25 14:52:52;;;;;;;27.52;6.70;;;;;;;8.77;97.58;99695.38;1775953;79;21147;-45
2021/01/25 14:55:23;;;;;;;21.42;6.10;;;;;;;8.97;96.11;99704.23;1792427;79;21196;-44
2021/01/25 14:57:51;;;;;;;34.50;7.60;;;;;;;9.05;95.32;99696.20;1787289;79;21172;-44
2021/01/25 15:00:21;;;;;;;20.40;5.55;;;;;;;9.31;93.66;99697.52;1768542;80;21278;-45
2021/01/25 15:02:49;;;;;;;25.27;6.78;;;;;;;9.27;94.16;99699.81;1773166;79;21161;-46
2021/01/25 15:05:23;;;;;;;30.17;6.42;;;;;;;9.01;95.56;99694.16;1774181;80;21188;-45
2021/01/25 15:07:59;;;;;;;29.65;8.08;;;;;;;9.18;95.31;99692.31;1830657;77;22972;-45
2021/01/25 15:10:28;;;;;;;28.00;6.85;;;;;;;9.39;93.47;99690.75;1807125;78;21169;-46
2021/01/25 15:12:57;;;;;;;23.12;5.62;;;;;;;9.48;92.51;99684.79;1810775;78;21137;-45
2021/01/25 15:15:26;;;;;;;19.37;6.15;;;;;;;9.42;92.17;99681.10;1810834;78;21282;-46
2021/01/25 15:17:57;;;;;;;35.05;6.70;;;;;;;9.23;93.37;99680.05;1811579;78;21145;-45
2021/01/25 15:20:28;;;;;;;20.97;6.78;;;;;;;9.30;93.00;99681.52;1807216;78;21110;-46
2021/01/25 15:22:58;;;;;;;25.68;5.45;;;;;;;9.33;92.69;99681.44;1814326;78;21134;-45
2021/01/25 15:25:29;;;;;;;26.12;6.15;;;;;;;9.32;92.61;99690.11;1809940;78;21177;-46
2021/01/25 15:27:57;;;;;;;31.00;7.15;;;;;;;9.92;89.41;99683.69;1812364;78;21176;-46
2021/01/25 15:30:27;;;;;;;26.97;6.42;;;;;;;10.00;88.21;99684.25;1810846;78;21141;-46
2021/01/25 15:32:55;;;;;;;27.02;7.05;;;;;;;10.12;87.46;99684.69;1799997;78;21169;-45
2021/01/25 15:35:24;;;;;;;29.32;7.05;;;;;;;10.34;85.97;99682.16;1814335;78;21708;-45
2021/01/25 15:37:53;;;;;;;23.52;6.60;;;;;;;10.28;86.17;99684.98;1809990;78;21624;-46
2021/01/25 15:40:21;;;;;;;33.23;8.60;;;;;;;10.28;85.93;99683.21;1813459;78;21129;-46
2021/01/25 15:42:50;;;;;;;22.32;5.50;;;;;;;10.36;85.34;99685.10;1804420;78;21165;-46
2021/01/25 15:45:20;;;;;;;27.17;5.40;;;;;;;9.56;89.04;99697.05;1811785;78;21830;-46
2021/01/25 15:47:49;;;;;;;30.50;5.67;;;;;;;9.48;89.88;99691.28;1811615;78;21149;-45
2021/01/25 15:50:18;;;;;;;31.17;6.97;;;;;;;9.55;89.57;99688.88;1811598;78;21142;-47
2021/01/25 15:52:46;;;;;;;26.87;7.95;;;;;;;9.57;89.34;99692.28;1811720;78;21122;-45
2021/01/25 15:55:21;;;;;;;37.60;6.95;;;;;;;9.60;89.03;99695.23;1810364;78;21134;-45
2021/01/25 15:57:49;;;;;;;33.48;7.20;;;;;;;9.50;89.12;99688.18;1807193;78;21157;-46
2021/01/25 16:00:21;;;;;;;26.57;7.30;;;;;;;9.67;88.29;99688.45;1810686;78;21176;-46
2021/01/25 16:02:50;;;;;;;24.02;6.15;;;;;;;9.61;88.29;99688.67;1809765;78;21130;-47
2021/01/25 16:05:21;;;;;;;39.35;7.78;;;;;;;9.58;88.36;99683.56;1809285;78;21141;-45
2021/01/25 16:07:51;;;;;;;28.62;6.25;;;;;;;9.56;88.37;99686.67;1801269;78;21173;-46
2021/01/25 16:10:20;;;;;;;31.85;7.65;;;;;;;9.55;88.28;99684.13;1800126;78;21589;-47
2021/01/25 16:12:48;;;;;;;28.85;7.20;;;;;;;9.54;87.88;99683.28;1801369;79;21174;-46
2021/01/25 16:15:18;;;;;;;30.72;6.72;;;;;;;9.54;87.80;99683.28;1803940;79;21644;-46
2021/01/25 16:17:47;;;;;;;33.05;7.15;;;;;;;9.50;87.99;99673.90;1803397;79;21593;-46
2021/01/25 16:20:18;;;;;;;41.63;7.40;;;;;;;9.51;87.75;99685.14;1802549;79;21201;-46
2021/01/25 16:22:47;;;;;;;27.62;7.60;;;;;;;9.51;87.53;99687.30;1803369;79;21556;-46
2021/01/25 16:25:19;;;;;;;28.62;6.80;;;;;;;9.51;87.32;99686.00;1802841;79;21288;-46
2021/01/25 16:27:47;;;;;;;27.58;6.78;;;;;;;9.55;87.29;99691.48;1801937;79;21110;-46
2021/01/25 16:30:17;;;;;;;29.15;7.15;;;;;;;9.54;87.03;99693.66;1803877;79;21303;-46
2021/01/25 16:32:46;;;;;;;27.10;7.97;;;;;;;9.55;86.57;99697.98;1804562;79;21176;-45
2021/01/25 16:35:15;;;;;;;20.88;6.33;;;;;;;9.55;86.30;99704.47;1805360;79;21153;-46
2021/01/25 16:37:44;;;;;;;25.15;7.10;;;;;;;9.57;86.15;99701.37;1805251;79;21153;-47
2021/01/25 16:40:14;;;;;;;24.07;6.90;;;;;;;9.58;85.71;99694.43;1772523;79;21146;-46
2021/01/25 16:42:42;;;;;;;16.80;6.17;;;;;;;9.58;85.38;99707.42;1802413;79;21142;-46
2021/01/25 16:45:13;;;;;;;24.55;8.78;;;;;;;9.57;85.21;99698.77;1801968;79;21278;-46
2021/01/25 16:47:44;;;;;;;14.18;6.72;;;;;;;9.59;85.16;99703.46;1797347;79;21316;-46
2021/01/25 16:50:12;;;;;;;12.65;5.83;;;;;;;9.62;85.11;99702.04;1801836;79;21181;-46
2021/01/25 16:52:42;;;;;;;8.45;6.20;;;;;;;9.65;85.13;99709.73;1801985;79;21170;-46
2021/01/25 16:55:11;;;;;;;9.45;7.47;;;;;;;9.69;84.93;99713.93;1802437;78;21177;-46
2021/01/25 16:57:40;;;;;;;9.03;7.70;;;;;;;9.73;84.47;99718.11;1798392;79;21162;-46
2021/01/25 17:00:11;;;;;;;10.72;8.88;;;;;;;9.78;83.70;99721.41;1801286;79;21302;-47
2021/01/25 17:02:40;;;;;;;8.15;7.35;;;;;;;9.76;83.41;99715.87;1806570;79;21759;-46
2021/01/25 17:05:11;;;;;;;8.55;7.70;;;;;;;9.75;83.04;99718.05;1805568;79;21601;-46
2021/01/25 17:07:40;;;;;;;11.38;8.35;;;;;;;9.76;82.62;99724.96;1805354;79;21618;-46
2021/01/25 17:10:10;;;;;;;8.35;7.65;;;;;;;9.79;82.41;99729.59;1803782;79;21178;-45
2021/01/25 17:12:38;;;;;;;10.13;9.13;;;;;;;10.04;80.92;99732.62;1802074;78;21154;-45
2021/01/25 17:15:08;;;;;;;9.63;8.55;;;;;;;10.08;80.25;99723.80;1801863;79;21158;-46
2021/01/25 17:17:36;;;;;;;9.65;8.78;;;;;;;10.06;79.95;99738.61;1801979;78;21103;-46
2021/01/25 17:20:07;;;;;;;10.03;9.08;;;;;;;10.02;79.85;99737.02;1801960;78;21154;-46
2021/01/25 17:22:36;;;;;;;9.60;8.67;;;;;;;10.09;79.37;99739.81;1802274;79;21177;-46
2021/01/25 17:25:08;;;;;;;10.50;8.83;;;;;;;10.05;79.05;99748.18;1803426;79;21142;-46
2021/01/25 17:27:38;;;;;;;11.20;8.63;;;;;;;10.04;78.83;99741.27;1799876;79;21610;-46
2021/01/25 17:30:08;;;;;;;8.95;8.05;;;;;;;10.03;78.63;99750.43;1804615;79;21134;-46
2021/01/25 17:32:37;;;;;;;9.20;8.20;;;;;;;10.01;78.22;99745.73;1805345;79;21185;-46
2021/01/25 17:35:08;;;;;;;8.18;6.95;;;;;;;9.98;77.70;99756.23;1805254;79;21149;-46
2021/01/25 17:37:37;;;;;;;6.70;6.05;;;;;;;9.92;77.14;99757.30;1805548;79;21177;-46
2021/01/25 17:40:08;;;;;;;6.55;5.90;;;;;;;9.89;76.55;99760.47;1803369;79;21522;-46
2021/01/25 17:42:38;;;;;;;5.83;5.22;;;;;;;9.84;76.31;99773.16;1801840;78;21134;-46
2021/01/25 17:45:19;;;;;;;5.87;5.27;;;;;;;9.87;75.58;99777.86;1802586;79;21154;-47
2021/01/25 17:47:48;;;;;;;5.03;4.50;;;;;;;9.99;74.69;99780.03;1711609;83;21132;-46
2021/01/25 17:50:19;;;;;;;5.95;4.50;;;;;;;9.79;74.48;99784.15;1711798;83;21181;-46
2021/01/25 17:52:47;;;;;;;4.67;4.20;;;;;;;9.64;74.53;99791.62;1711703;84;21614;-46
2021/01/25 17:55:19;;;;;;;4.22;3.83;;;;;;;9.43;74.95;99790.57;1711820;84;21182;-46
2021/01/25 17:57:52;;;;;;;4.15;3.75;;;;;;;9.36;75.06;99792.95;1711774;84;21209;-46
2021/01/25 18:00:22;;;;;;;3.87;3.50;;;;;;;9.31;74.74;99796.16;1699825;84;21629;-46
2021/01/25 18:02:50;;;;;;;5.70;4.80;;;;;;;9.37;74.18;99811.54;1709080;84;21166;-47
2021/01/25 18:05:20;;;;;;;4.03;3.62;;;;;;;9.33;73.53;99818.17;1711758;84;21253;-46
2021/01/25 18:07:50;;;;;;;4.05;3.72;;;;;;;9.15;73.26;99831.25;1699281;84;21606;-46
2021/01/25 18:10:19;;;;;;;4.50;4.10;;;;;;;8.93;73.64;99849.66;1699536;84;21320;-46
2021/01/25 18:12:48;;;;;;;6.45;4.87;;;;;;;8.83;73.50;99840.45;1700826;84;21214;-46
2021/01/25 18:15:17;;;;;;;7.22;5.47;;;;;;;8.76;73.11;99848.84;1701814;84;21206;-45
2021/01/25 18:17:46;;;;;;;4.20;3.60;;;;;;;8.69;72.72;99855.13;1701764;83;21222;-45
2021/01/25 18:20:14;;;;;;;4.10;3.70;;;;;;;8.48;73.07;99861.34;1701825;84;21676;-45
2021/01/25 18:22:43;;;;;;;3.90;3.52;;;;;;;8.35;73.20;99872.92;1701550;84;21145;-45
2021/01/25 18:25:11;;;;;;;6.35;3.75;;;;;;;8.24;73.19;99876.61;1702096;84;21201;-46
2021/01/25 18:27:40;;;;;;;3.67;3.37;;;;;;;8.15;73.18;99871.69;1688446;84;21236;-46
2021/01/25 18:30:16;;;;;;;4.15;3.70;;;;;;;8.24;72.77;99880.97;1702906;84;21261;-47
2021/01/25 18:32:50;;;;;;;3.85;3.20;;;;;;;8.27;72.69;99892.56;1809334;77;22634;-46
2021/01/25 18:35:21;;;;;;;5.17;4.00;;;;;;;8.19;72.71;99886.27;1774212;80;21612;-45
2021/01/25 18:37:50;;;;;;;5.53;4.47;;;;;;;8.14;72.67;99884.22;1773519;80;21155;-45
2021/01/25 18:40:21;;;;;;;5.72;4.60;;;;;;;8.13;72.92;99883.83;1773174;80;21168;-46
2021/01/25 18:42:49;;;;;;;4.75;3.67;;;;;;;8.15;72.71;99897.59;1774244;80;21196;-46
2021/01/25 18:45:21;;;;;;;4.37;3.80;;;;;;;8.14;72.63;99890.70;1770228;81;21144;-46
2021/01/25 18:47:49;;;;;;;4.50;4.00;;;;;;;8.12;72.29;99894.21;1770314;81;21576;-46
2021/01/25 18:50:18;;;;;;;5.65;4.50;;;;;;;8.19;71.96;99908.29;1770119;81;21183;-45
2021/01/25 18:52:52;;;;;;;5.62;4.20;;;;;;;8.22;71.70;99903.02;1770228;81;21607;-46
2021/01/25 18:55:22;;;;;;;4.97;4.17;;;;;;;8.22;71.73;99906.90;1769929;81;21300;-46
2021/01/25 18:57:51;;;;;;;4.97;4.00;;;;;;;8.20;71.70;99898.31;1770138;81;21159;-45
2021/01/25 19:00:22;;;;;;;4.45;4.05;;;;;;;8.19;71.53;99895.33;1742224;81;21742;-46
2021/01/25 19:02:50;;;;;;;4.70;3.95;;;;;;;8.19;71.49;99881.08;1760521;81;21159;-47
2021/01/25 19:05:19;;;;;;;5.50;4.65;;;;;;;8.21;71.47;99878.44;1768220;81;21167;-45
2021/01/25 19:07:48;;;;;;;4.25;3.83;;;;;;;8.08;71.80;99889.56;1769857;81;21219;-46
2021/01/25 19:10:18;;;;;;;4.40;4.00;;;;;;;8.10;71.80;99891.67;1770177;81;21721;-45
2021/01/25 19:12:47;;;;;;;3.92;3.62;;;;;;;8.13;71.54;99894.20;1769873;81;21128;-46
2021/01/25 19:15:18;;;;;;;4.25;3.80;;;;;;;8.13;71.48;99896.79;1769965;81;21156;-45
2021/01/25 19:17:47;;;;;;;4.05;3.65;;;;;;;8.13;71.37;99901.97;1770075;81;21147;-46
2021/01/25 19:20:18;;;;;;;7.28;3.80;;;;;;;8.11;71.14;99912.81;1769938;81;21321;-45
2021/01/25 19:22:48;;;;;;;5.15;4.22;;;;;;;8.04;71.32;99937.16;1770244;81;21140;-46
2021/01/25 19:25:18;;;;;;;4.87;3.65;;;;;;;8.01;71.42;99956.69;1770202;81;21568;-45
2021/01/25 19:27:47;;;;;;;4.25;3.85;;;;;;;8.01;71.40;99965.75;1769942;81;21164;-45
2021/01/25 19:30:18;;;;;;;4.28;3.77;;;;;;;8.07;70.98;99971.22;1770167;81;21207;-46
2021/01/25 19:32:47;;;;;;;4.22;3.83;;;;;;;8.13;70.45;99987.92;1738891;81;21149;-46
2021/01/25 19:35:15;;;;;;;5.08;3.70;;;;;;;8.09;70.25;99996.66;1739952;82;21165;-45
2021/01/25 19:37:45;;;;;;;3.42;3.12;;;;;;;8.04;70.34;100005.82;1740190;82;21205;-46
2021/01/25 19:40:20;;;;;;;3.65;3.35;;;;;;;8.00;70.42;100004.19;1739948;82;21153;-45
2021/01/25 19:42:48;;;;;;;3.98;3.52;;;;;;;7.99;70.46;100012.00;1729908;82;21192;-45
2021/01/25 19:45:24;;;;;;;4.75;3.42;;;;;;;7.99;70.59;100009.42;1741241;82;21608;-46
2021/01/25 19:47:52;;;;;;;3.72;3.42;;;;;;;8.01;70.43;100013.69;1737694;82;21121;-45
2021/01/25 19:50:21;;;;;;;3.45;3.15;;;;;;;7.96;70.65;100012.92;1737674;82;21157;-45
2021/01/25 19:52:49;;;;;;;3.22;2.95;;;;;;;7.95;70.88;100024.19;1737867;82;21203;-45
2021/01/25 19:55:20;;;;;;;3.08;2.72;;;;;;;7.94;71.02;100028.94;1737463;82;21186;-45
2021/01/25 19:57:48;;;;;;;2.90;2.70;;;;;;;7.95;71.02;100032.39;1740633;81;21200;-45
2021/01/25 20:00:23;;;;;;;3.58;3.05;;;;;;;7.98;70.96;100050.01;1725974;82;21161;-46
2021/01/25 20:02:51;;;;;;;3.70;3.22;;;;;;;7.98;70.96;100053.89;1674493;85;21134;-46
2021/01/25 20:05:21;;;;;;;4.10;3.67;;;;;;;7.99;70.89;100053.02;1704550;83;21662;-45
2021/01/25 20:07:49;;;;;;;3.33;2.72;;;;;;;8.01;70.94;100069.38;1708671;83;21160;-46
2021/01/25 20:10:26;;;;;;;3.35;3.05;;;;;;;8.01;70.91;100090.11;1724930;82;21344;-46
2021/01/25 20:12:55;;;;;;;3.30;3.00;;;;;;;8.12;70.54;100099.77;1707624;83;21627;-46
2021/01/25 20:15:34;;;;;;;3.90;2.70;;;;;;;8.05;70.67;100103.41;1701151;83;21156;-46
2021/01/25 20:18:04;;;;;;;3.02;2.77;;;;;;;8.05;70.59;100118.95;1700177;83;21160;-46
2021/01/25 20:20:32;;;;;;;3.20;2.90;;;;;;;8.02;70.68;100122.89;1705789;83;21169;-46
2021/01/25 20:23:05;;;;;;;3.52;3.22;;;;;;;8.09;70.62;100124.47;1705371;83;21203;-46
2021/01/25 20:25:40;;;;;;;3.65;3.17;;;;;;;8.13;70.47;100119.64;1771490;79;23529;-45
2021/01/25 20:28:13;;;;;;;3.42;3.12;;;;;;;8.11;70.22;100131.77;1738520;82;21136;-45
2021/01/25 20:30:41;;;;;;;;;;;;;;;8.12;70.19;100141.23;1745469;82;21184;-45
2021/01/25 20:33:11;;;;;;;3.67;3.17;;;;;;;8.13;69.98;100149.44;1738457;82;20179;-45
2021/01/25 20:35:40;;;;;;;3.08;2.77;;;;;;;7.99;70.40;100154.49;1738078;82;21176;-46
2021/01/25 20:38:10;;;;;;;3.20;2.87;;;;;;;7.94;70.63;100167.53;1743996;82;21152;-47
2021/01/25 20:40:40;;;;;;;3.02;2.72;;;;;;;7.95;70.71;100174.44;1741935;82;21196;-46
2021/01/25 20:43:09;;;;;;;4.42;3.42;;;;;;;7.99;70.59;100186.44;1734469;82;21168;-45
2021/01/25 20:45:46;;;;;;;3.42;2.70;;;;;;;8.00;70.47;100182.95;1744265;81;21153;-46
2021/01/25 20:48:16;;;;;;;2.72;2.52;;;;;;;7.90;70.46;100189.20;1732175;82;21156;-46
2021/01/25 20:50:45;;;;;;;3.00;2.70;;;;;;;7.95;70.14;100201.64;1738699;82;21156;-45
2021/01/25 20:53:17;;;;;;;3.00;2.77;;;;;;;7.96;70.01;100212.40;1733550;81;21290;-46
2021/01/25 20:55:45;;;;;;;;;;;;;;;7.96;70.11;100220.17;1743766;82;21172;-45
2021/01/25 20:58:13;;;;;;;2.65;2.45;;;;;;;7.88;70.28;100227.23;1737793;82;20188;-45
2021/01/25 21:00:41;;;;;;;3.60;2.72;;;;;;;7.90;70.10;100237.56;1742546;82;21156;-46
2021/01/25 21:03:11;;;;;;;3.50;2.95;;;;;;;7.89;69.97;100247.06;1738770;82;21577;-46
2021/01/25 21:05:40;;;;;;;3.30;2.80;;;;;;;7.86;70.03;100257.50;1737621;82;21467;-45
2021/01/25 21:08:10;;;;;;;2.90;2.70;;;;;;;7.88;69.93;100260.91;1737328;82;21156;-46
2021/01/25 21:10:38;;;;;;;2.27;2.08;;;;;;;7.96;69.56;100268.09;1741883;82;21605;-46
2021/01/25 21:13:08;;;;;;;3.15;2.58;;;;;;;7.99;69.26;100277.13;1734346;82;21604;-45
2021/01/25 21:15:39;;;;;;;3.60;3.30;;;;;;;8.01;69.08;100279.24;1744377;82;21161;-45
2021/01/25 21:18:08;;;;;;;3.10;2.80;;;;;;;7.96;69.20;100297.89;1732050;82;21160;-46
2021/01/25 21:20:36;;;;;;;2.37;2.17;;;;;;;7.95;68.95;100309.15;1743583;82;21169;-46
2021/01/25 21:23:07;;;;;;;3.92;2.35;;;;;;;7.93;68.86;100308.76;1735057;82;21133;-46
2021/01/25 21:25:35;;;;;;;5.15;2.45;;;;;;;7.93;68.71;100323.84;1739897;82;21592;-46
2021/01/25 21:28:04;;;;;;;2.70;2.47;;;;;;;7.82;68.69;100324.48;1737588;82;21153;-46
2021/01/25 21:30:35;;;;;;;2.92;2.47;;;;;;;7.89;68.45;100330.42;1738649;82;21161;-45
2021/01/25 21:33:06;;;;;;;2.87;2.67;;;;;;;7.83;68.23;100337.83;1740004;82;21180;-45
2021/01/25 21:35:38;;;;;;;2.50;2.30;;;;;;;7.80;68.12;100337.04;1738193;82;21169;-46
2021/01/25 21:38:07;;;;;;;2.62;2.27;;;;;;;7.74;68.15;100350.95;1740040;82;21156;-45
2021/01/25 21:40:35;;;;;;;2.40;2.17;;;;;;;7.67;68.25;100362.28;1736483;82;21171;-45
2021/01/25 21:43:03;;;;;;;4.72;2.65;;;;;;;7.66;68.08;100370.95;1743119;82;21180;-45
2021/01/25 21:45:34;;;;;;;2.55;2.35;;;;;;;7.67;67.96;100373.94;1732178;82;21129;-45
2021/01/25 21:48:04;;;;;;;2.40;2.20;;;;;;;7.64;67.67;100368.83;1738341;82;21141;-45
2021/01/25 21:50:32;;;;;;;3.92;3.00;;;;;;;7.61;67.49;100377.92;1734017;82;21152;-45
2021/01/25 21:53:00;;;;;;;2.42;2.22;;;;;;;7.59;67.44;100383.56;1740437;82;21169;-45
2021/01/25 21:55:30;;;;;;;3.10;2.52;;;;;;;7.58;67.15;100383.59;1738717;82;21113;-45
2021/01/25 21:57:59;;;;;;;3.92;2.37;;;;;;;7.66;66.90;100387.78;1735954;82;21121;-45
2021/01/25 22:00:27;;;;;;;2.60;2.40;;;;;;;7.69;66.37;100395.91;1736878;80;21232;-46
2021/01/25 22:02:55;;;;;;;2.15;1.90;;;;;;;7.68;65.98;100402.85;1738393;82;21169;-46
2021/01/25 22:05:24;;;;;;;2.58;2.30;;;;;;;7.74;65.27;100394.13;1739756;82;21600;-45
2021/01/25 22:07:52;;;;;;;3.12;2.60;;;;;;;7.68;65.00;100409.33;1741670;82;21117;-45
2021/01/25 22:10:22;;;;;;;2.05;1.85;;;;;;;7.61;64.69;100415.47;1733748;82;21125;-45
2021/01/25 22:12:51;;;;;;;1.70;1.60;;;;;;;7.53;64.76;100425.08;1744706;82;21160;-45
2021/01/25 22:15:25;;;;;;;2.27;2.08;;;;;;;7.61;64.40;100436.18;1732200;82;21330;-45
2021/01/25 22:17:53;;;;;;;2.17;1.98;;;;;;;7.62;64.19;100448.27;1743511;82;21152;-45
2021/01/25 22:20:23;;;;;;;3.30;2.22;;;;;;;7.62;63.88;100452.15;1735969;82;21160;-45
2021/01/25 22:22:52;;;;;;;2.37;2.15;;;;;;;7.60;63.60;100451.31;1738683;82;21136;-46
2021/01/25 22:25:24;;;;;;;3.92;2.30;;;;;;;7.59;63.48;100452.17;1731557;82;21530;-45
2021/01/25 22:27:53;;;;;;;2.50;2.30;;;;;;;7.50;63.57;100448.41;1718299;82;21588;-45
2021/01/25 22:30:23;;;;;;;2.52;2.33;;;;;;;7.47;63.49;100457.53;1723833;82;21152;-45
2021/01/25 22:32:51;;;;;;;3.25;2.55;;;;;;;7.47;63.61;100465.30;1729870;82;21209;-46
2021/01/25 22:35:23;;;;;;;3.08;2.62;;;;;;;7.45;63.74;100474.82;1728324;82;21188;-45
2021/01/25 22:37:53;;;;;;;3.02;2.72;;;;;;;7.43;63.87;100479.16;1645323;86;21285;-45
2021/01/25 22:40:21;;;;;;;5.17;3.20;;;;;;;7.38;63.90;100482.23;1660702;86;21252;-45
2021/01/25 22:42:49;;;;;;;3.45;2.70;;;;;;;7.37;63.94;100493.48;1660539;86;21201;-45
2021/01/25 22:45:22;;;;;;;3.35;3.00;;;;;;;7.33;63.94;100496.98;1660592;86;21189;-45
2021/01/25 22:47:50;;;;;;;;;;;;;;;7.29;64.02;100495.31;1663196;86;21161;-45
2021/01/25 22:50:19;;;;;;;3.15;2.85;;;;;;;7.24;64.25;100500.54;1642021;87;20189;-45
2021/01/25 22:52:49;;;;;;;3.80;3.00;;;;;;;7.20;64.50;100504.47;1660689;86;21322;-45
2021/01/25 22:55:19;;;;;;;3.10;2.80;;;;;;;7.18;64.68;100506.22;1658422;86;21195;-46
2021/01/25 22:57:49;;;;;;;3.25;2.95;;;;;;;7.16;64.79;100513.14;1641158;87;21181;-45
2021/01/25 23:00:25;;;;;;;3.08;2.77;;;;;;;7.14;64.80;100511.02;1641528;87;21317;-45
2021/01/25 23:03:00;;;;;;;3.67;3.22;;;;;;;7.14;64.85;100520.07;1806457;79;22934;-45
2021/01/25 23:05:32;;;;;;;3.40;2.80;;;;;;;7.04;64.85;100523.20;1780218;80;21121;-45
2021/01/25 23:08:00;;;;;;;3.37;3.07;;;;;;;7.01;65.00;100537.88;1780152;80;21192;-45
2021/01/25 23:10:29;;;;;;;3.30;3.00;;;;;;;6.95;64.96;100547.00;1777302;80;21173;-45
2021/01/25 23:12:57;;;;;;;3.33;3.00;;;;;;;6.93;65.09;100553.92;1777540;80;21595;-46
2021/01/25 23:15:42;;;;;;;3.42;2.92;;;;;;;6.93;65.11;100552.63;1776310;80;21301;-45
2021/01/25 23:18:20;;;;;;;3.65;3.15;;;;;;;6.88;65.05;100555.72;1776793;80;21621;-45
2021/01/25 23:20:48;;;;;;;3.20;2.85;;;;;;;6.73;65.36;100549.39;1777385;80;21148;-45
2021/01/25 23:23:21;;;;;;;3.33;3.02;;;;;;;6.78;65.21;100560.56;1776255;80;21281;-45
2021/01/25 23:25:53;;;;;;;4.65;2.67;;;;;;;6.78;65.09;100570.91;1770531;80;21132;-46
2021/01/25 23:28:21;;;;;;;4.20;3.08;;;;;;;6.78;65.11;100569.61;1771320;80;21204;-46
2021/01/25 23:30:49;;;;;;;2.92;2.70;;;;;;;6.88;64.80;100572.53;1772337;80;21677;-45
2021/01/25 23:33:23;;;;;;;3.35;2.87;;;;;;;7.00;64.40;100573.70;1773284;80;21145;-45
2021/01/25 23:35:54;;;;;;;4.33;3.27;;;;;;;7.05;64.16;100582.25;1777824;80;21164;-46
2021/01/25 23:38:24;;;;;;;3.58;2.87;;;;;;;6.87;64.47;100578.56;1771533;80;21616;-46
2021/01/25 23:40:52;;;;;;;4.03;3.50;;;;;;;6.81;64.58;100577.33;1769696;80;21568;-46
2021/01/25 23:43:37;;;;;;;4.25;3.35;;;;;;;6.77;64.61;100570.47;1773536;80;21168;-45
2021/01/25 23:46:09;;;;;;;3.42;2.95;;;;;;;6.77;64.77;100580.81;1772314;80;21156;-45
2021/01/25 23:48:43;;;;;;;3.75;3.15;;;;;;;6.81;64.59;100587.23;1843142;77;23051;-46
2021/01/25 23:51:12;;;;;;;3.25;2.92;;;;;;;6.78;64.35;100595.47;1815557;78;21163;-45
2021/01/25 23:53:45;;;;;;;4.15;3.45;;;;;;;6.77;64.22;100595.03;1815431;78;21131;-46
2021/01/25 23:56:14;;;;;;;3.62;3.33;;;;;;;6.74;64.14;100600.25;1805785;78;21152;-45
2021/01/25 23:58:43;;;;;;;3.65;3.35;;;;;;;6.71;64.05;100609.31;1805778;78;21194;-45
